KBIH/BIH METAR and TAF weather

Enter ICAO airport designator
Station Type Date Time Source
KBIH METAR 2018/10/16 19:56 UTC NOAA

KBIH 161956Z AUTO 26006KT 10SM CLR 20/M09 A3020 RMK AO2 SLP199 T02001094


Station Type Date Time Source
KBIH Decoded METAR 2018/10/16 19:56 UTC NOAA

BISHOP AIRPORT, CA, United States (KBIH) 37-22N 118-22W 1253M
Oct 16, 2018 - 03:56 PM EDT / 2018.10.16 1956 UTC
Wind: from the W (260 degrees) at 7 MPH (6 KT):0
Visibility: 10 mile(s):0
Sky conditions: clear
Temperature: 68.0 F (20.0 C)
Dew Point: 15.1 F (-9.4 C)
Relative Humidity: 12%
Pressure (altimeter): 30.2 in. Hg (1022 hPa)
ob: KBIH 161956Z AUTO 26006KT 10SM CLR 20/M09 A3020 RMK AO2 SLP199 T02001094
cycle: 20

Station Type Date Time Source
KBIH TAF 2018/10/16 18:22 UTC NOAA

TAF KBIH 161720Z 1618/1718 35010KT P6SM SKC


Example: see airport list